sensor_id;sensor_type;location;lat;lon;timestamp;P1;durP1;ratioP1;P2;durP2;ratioP2
76896;SDS011;65856;52.178;21.176;2023-06-19T00:02:09;13.70;;;6.60;;
76896;SDS011;65856;52.178;21.176;2023-06-19T00:04:35;10.20;;;7.00;;
76896;SDS011;65856;52.178;21.176;2023-06-19T00:07:00;9.50;;;7.80;;
76896;SDS011;65856;52.178;21.176;2023-06-19T00:09:26;10.20;;;7.60;;
76896;SDS011;65856;52.178;21.176;2023-06-19T00:11:52;9.90;;;7.10;;
76896;SDS011;65856;52.178;21.176;2023-06-19T00:14:18;10.30;;;7.70;;
76896;SDS011;65856;52.178;21.176;2023-06-19T00:16:44;9.70;;;7.50;;
76896;SDS011;65856;52.178;21.176;2023-06-19T00:19:10;10.60;;;7.60;;
76896;SDS011;65856;52.178;21.176;2023-06-19T00:21:37;10.70;;;7.00;;
76896;SDS011;65856;52.178;21.176;2023-06-19T00:24:04;10.00;;;7.40;;
76896;SDS011;65856;52.178;21.176;2023-06-19T00:26:30;9.40;;;7.20;;
76896;SDS011;65856;52.178;21.176;2023-06-19T00:28:56;11.30;;;7.20;;
76896;SDS011;65856;52.178;21.176;2023-06-19T00:31:22;8.20;;;7.10;;
76896;SDS011;65856;52.178;21.176;2023-06-19T00:33:48;10.60;;;7.40;;
76896;SDS011;65856;52.178;21.176;2023-06-19T00:36:15;11.30;;;7.30;;
76896;SDS011;65856;52.178;21.176;2023-06-19T00:38:45;10.10;;;7.20;;
76896;SDS011;65856;52.178;21.176;2023-06-19T00:41:11;10.90;;;7.40;;
76896;SDS011;65856;52.178;21.176;2023-06-19T00:43:37;10.20;;;7.60;;
76896;SDS011;65856;52.178;21.176;2023-06-19T00:46:03;9.40;;;7.40;;
76896;SDS011;65856;52.178;21.176;2023-06-19T00:48:31;9.90;;;7.90;;
76896;SDS011;65856;52.178;21.176;2023-06-19T00:50:59;12.30;;;7.90;;
76896;SDS011;65856;52.178;21.176;2023-06-19T00:53:25;9.00;;;7.10;;
76896;SDS011;65856;52.178;21.176;2023-06-19T00:55:52;9.30;;;7.30;;
76896;SDS011;65856;52.178;21.176;2023-06-19T00:58:22;9.00;;;7.70;;
76896;SDS011;65856;52.178;21.176;2023-06-19T01:00:49;10.20;;;8.00;;
76896;SDS011;65856;52.178;21.176;2023-06-19T01:03:15;9.90;;;7.40;;
76896;SDS011;65856;52.178;21.176;2023-06-19T01:05:42;9.30;;;7.60;;
76896;SDS011;65856;52.178;21.176;2023-06-19T01:08:41;10.10;;;7.30;;
76896;SDS011;65856;52.178;21.176;2023-06-19T01:11:17;7.90;;;6.90;;
76896;SDS011;65856;52.178;21.176;2023-06-19T01:13:53;9.90;;;7.00;;
76896;SDS011;65856;52.178;21.176;2023-06-19T01:16:25;8.20;;;7.30;;
76896;SDS011;65856;52.178;21.176;2023-06-19T01:18:53;9.50;;;7.10;;
76896;SDS011;65856;52.178;21.176;2023-06-19T01:21:19;10.50;;;7.70;;
76896;SDS011;65856;52.178;21.176;2023-06-19T01:23:45;10.90;;;7.30;;
76896;SDS011;65856;52.178;21.176;2023-06-19T01:26:12;8.70;;;7.40;;
76896;SDS011;65856;52.178;21.176;2023-06-19T01:28:41;11.10;;;8.30;;
76896;SDS011;65856;52.178;21.176;2023-06-19T01:31:13;10.30;;;8.20;;
76896;SDS011;65856;52.178;21.176;2023-06-19T01:33:47;8.30;;;7.20;;
76896;SDS011;65856;52.178;21.176;2023-06-19T01:36:15;11.40;;;7.80;;
76896;SDS011;65856;52.178;21.176;2023-06-19T01:38:45;9.40;;;8.10;;
76896;SDS011;65856;52.178;21.176;2023-06-19T01:41:14;9.50;;;7.90;;
76896;SDS011;65856;52.178;21.176;2023-06-19T01:43:41;12.70;;;8.80;;
76896;SDS011;65856;52.178;21.176;2023-06-19T01:46:07;8.80;;;7.80;;
76896;SDS011;65856;52.178;21.176;2023-06-19T01:48:35;11.00;;;8.70;;
76896;SDS011;65856;52.178;21.176;2023-06-19T01:51:04;8.50;;;7.60;;
76896;SDS011;65856;52.178;21.176;2023-06-19T01:53:31;9.50;;;7.80;;
76896;SDS011;65856;52.178;21.176;2023-06-19T01:55:58;9.10;;;7.80;;
76896;SDS011;65856;52.178;21.176;2023-06-19T01:58:24;8.90;;;8.00;;
76896;SDS011;65856;52.178;21.176;2023-06-19T02:00:50;10.10;;;7.80;;
76896;SDS011;65856;52.178;21.176;2023-06-19T02:03:15;9.80;;;7.70;;
76896;SDS011;65856;52.178;21.176;2023-06-19T02:05:40;8.80;;;7.00;;
76896;SDS011;65856;52.178;21.176;2023-06-19T02:08:06;9.40;;;7.40;;
76896;SDS011;65856;52.178;21.176;2023-06-19T02:10:32;8.40;;;6.70;;
76896;SDS011;65856;52.178;21.176;2023-06-19T02:12:58;9.40;;;7.00;;
76896;SDS011;65856;52.178;21.176;2023-06-19T02:15:23;7.60;;;6.80;;
76896;SDS011;65856;52.178;21.176;2023-06-19T02:17:49;10.60;;;8.00;;
76896;SDS011;65856;52.178;21.176;2023-06-19T02:20:20;10.80;;;7.00;;
76896;SDS011;65856;52.178;21.176;2023-06-19T02:22:46;11.70;;;7.40;;
76896;SDS011;65856;52.178;21.176;2023-06-19T02:25:12;8.70;;;6.90;;
76896;SDS011;65856;52.178;21.176;2023-06-19T02:27:38;8.50;;;7.30;;
76896;SDS011;65856;52.178;21.176;2023-06-19T02:30:04;8.20;;;6.90;;
76896;SDS011;65856;52.178;21.176;2023-06-19T02:32:31;9.30;;;7.50;;
76896;SDS011;65856;52.178;21.176;2023-06-19T02:34:57;8.90;;;7.40;;
76896;SDS011;65856;52.178;21.176;2023-06-19T02:37:23;9.10;;;7.40;;
76896;SDS011;65856;52.178;21.176;2023-06-19T02:39:49;11.30;;;7.00;;
76896;SDS011;65856;52.178;21.176;2023-06-19T02:42:14;9.70;;;7.20;;
76896;SDS011;65856;52.178;21.176;2023-06-19T02:44:40;10.00;;;6.90;;
76896;SDS011;65856;52.178;21.176;2023-06-19T02:47:07;7.50;;;6.70;;
76896;SDS011;65856;52.178;21.176;2023-06-19T02:49:33;9.00;;;7.00;;
76896;SDS011;65856;52.178;21.176;2023-06-19T02:51:58;11.60;;;7.50;;
76896;SDS011;65856;52.178;21.176;2023-06-19T02:54:24;9.40;;;7.70;;
76896;SDS011;65856;52.178;21.176;2023-06-19T02:56:49;10.60;;;7.80;;
76896;SDS011;65856;52.178;21.176;2023-06-19T02:59:15;10.30;;;7.80;;
76896;SDS011;65856;52.178;21.176;2023-06-19T03:01:40;10.00;;;7.60;;
76896;SDS011;65856;52.178;21.176;2023-06-19T03:04:05;10.10;;;7.80;;
76896;SDS011;65856;52.178;21.176;2023-06-19T03:06:31;11.00;;;8.00;;
76896;SDS011;65856;52.178;21.176;2023-06-19T03:08:58;8.30;;;7.40;;
76896;SDS011;65856;52.178;21.176;2023-06-19T03:11:24;14.20;;;7.80;;
76896;SDS011;65856;52.178;21.176;2023-06-19T03:13:51;9.20;;;7.50;;
76896;SDS011;65856;52.178;21.176;2023-06-19T03:16:18;8.40;;;7.10;;
76896;SDS011;65856;52.178;21.176;2023-06-19T03:18:45;8.60;;;7.10;;
76896;SDS011;65856;52.178;21.176;2023-06-19T03:21:12;9.30;;;7.10;;
76896;SDS011;65856;52.178;21.176;2023-06-19T03:23:41;10.10;;;7.60;;
76896;SDS011;65856;52.178;21.176;2023-06-19T03:26:07;8.50;;;7.60;;
76896;SDS011;65856;52.178;21.176;2023-06-19T03:28:34;10.60;;;7.60;;
76896;SDS011;65856;52.178;21.176;2023-06-19T03:30:59;8.70;;;7.70;;
76896;SDS011;65856;52.178;21.176;2023-06-19T03:33:26;9.80;;;8.10;;
76896;SDS011;65856;52.178;21.176;2023-06-19T03:35:51;10.80;;;8.20;;
76896;SDS011;65856;52.178;21.176;2023-06-19T03:38:17;11.80;;;8.60;;
76896;SDS011;65856;52.178;21.176;2023-06-19T03:40:42;10.70;;;8.20;;
76896;SDS011;65856;52.178;21.176;2023-06-19T03:43:08;10.50;;;8.50;;
76896;SDS011;65856;52.178;21.176;2023-06-19T03:45:33;10.60;;;7.70;;
76896;SDS011;65856;52.178;21.176;2023-06-19T03:47:59;10.90;;;8.00;;
76896;SDS011;65856;52.178;21.176;2023-06-19T03:50:24;13.00;;;8.80;;
76896;SDS011;65856;52.178;21.176;2023-06-19T03:52:50;11.20;;;9.00;;
76896;SDS011;65856;52.178;21.176;2023-06-19T03:55:15;10.80;;;8.60;;
76896;SDS011;65856;52.178;21.176;2023-06-19T03:57:41;13.00;;;9.00;;
76896;SDS011;65856;52.178;21.176;2023-06-19T04:00:07;11.00;;;8.80;;
76896;SDS011;65856;52.178;21.176;2023-06-19T04:02:33;12.40;;;9.10;;
76896;SDS011;65856;52.178;21.176;2023-06-19T04:05:00;11.60;;;9.00;;
76896;SDS011;65856;52.178;21.176;2023-06-19T04:07:26;10.40;;;8.40;;
76896;SDS011;65856;52.178;21.176;2023-06-19T04:09:51;12.00;;;8.80;;
76896;SDS011;65856;52.178;21.176;2023-06-19T04:12:16;12.10;;;9.10;;
76896;SDS011;65856;52.178;21.176;2023-06-19T04:14:42;12.60;;;9.00;;
76896;SDS011;65856;52.178;21.176;2023-06-19T04:17:07;13.40;;;10.80;;
76896;SDS011;65856;52.178;21.176;2023-06-19T04:19:33;13.20;;;11.00;;
76896;SDS011;65856;52.178;21.176;2023-06-19T04:21:58;17.80;;;11.70;;
76896;SDS011;65856;52.178;21.176;2023-06-19T04:24:24;15.90;;;11.30;;
76896;SDS011;65856;52.178;21.176;2023-06-19T04:26:49;12.70;;;9.80;;
76896;SDS011;65856;52.178;21.176;2023-06-19T04:29:15;11.40;;;8.80;;
76896;SDS011;65856;52.178;21.176;2023-06-19T04:31:44;10.10;;;8.90;;
76896;SDS011;65856;52.178;21.176;2023-06-19T04:34:18;12.70;;;9.90;;
76896;SDS011;65856;52.178;21.176;2023-06-19T04:36:47;13.80;;;9.90;;
76896;SDS011;65856;52.178;21.176;2023-06-19T04:39:13;14.20;;;10.60;;
76896;SDS011;65856;52.178;21.176;2023-06-19T04:41:40;14.20;;;10.10;;
76896;SDS011;65856;52.178;21.176;2023-06-19T04:44:09;13.50;;;11.20;;
76896;SDS011;65856;52.178;21.176;2023-06-19T04:46:37;15.10;;;10.40;;
76896;SDS011;65856;52.178;21.176;2023-06-19T04:49:03;9.80;;;8.80;;
76896;SDS011;65856;52.178;21.176;2023-06-19T04:51:33;11.10;;;9.00;;
76896;SDS011;65856;52.178;21.176;2023-06-19T04:53:59;9.70;;;8.50;;
76896;SDS011;65856;52.178;21.176;2023-06-19T04:56:25;11.70;;;8.80;;
76896;SDS011;65856;52.178;21.176;2023-06-19T04:58:51;9.80;;;8.80;;
76896;SDS011;65856;52.178;21.176;2023-06-19T05:01:17;9.60;;;8.50;;
76896;SDS011;65856;52.178;21.176;2023-06-19T05:03:45;9.40;;;8.50;;
76896;SDS011;65856;52.178;21.176;2023-06-19T05:06:11;11.70;;;9.60;;
76896;SDS011;65856;52.178;21.176;2023-06-19T05:08:37;9.90;;;8.50;;
76896;SDS011;65856;52.178;21.176;2023-06-19T05:11:03;10.30;;;9.20;;
76896;SDS011;65856;52.178;21.176;2023-06-19T05:13:28;12.20;;;7.80;;
76896;SDS011;65856;52.178;21.176;2023-06-19T05:15:54;8.00;;;6.80;;
76896;SDS011;65856;52.178;21.176;2023-06-19T05:18:21;10.60;;;7.60;;
76896;SDS011;65856;52.178;21.176;2023-06-19T05:20:47;8.90;;;7.00;;
76896;SDS011;65856;52.178;21.176;2023-06-19T05:23:12;9.20;;;7.20;;
76896;SDS011;65856;52.178;21.176;2023-06-19T05:25:38;7.90;;;7.10;;
76896;SDS011;65856;52.178;21.176;2023-06-19T05:28:03;9.80;;;7.10;;
76896;SDS011;65856;52.178;21.176;2023-06-19T05:30:29;7.70;;;6.90;;
76896;SDS011;65856;52.178;21.176;2023-06-19T05:32:55;7.40;;;6.50;;
76896;SDS011;65856;52.178;21.176;2023-06-19T05:35:20;10.30;;;6.70;;
76896;SDS011;65856;52.178;21.176;2023-06-19T05:37:47;7.90;;;6.90;;
76896;SDS011;65856;52.178;21.176;2023-06-19T05:40:13;7.60;;;6.90;;
76896;SDS011;65856;52.178;21.176;2023-06-19T05:42:40;8.50;;;7.00;;
76896;SDS011;65856;52.178;21.176;2023-06-19T05:45:06;7.80;;;6.30;;
76896;SDS011;65856;52.178;21.176;2023-06-19T05:47:33;7.10;;;6.40;;
76896;SDS011;65856;52.178;21.176;2023-06-19T05:49:58;8.30;;;6.80;;
76896;SDS011;65856;52.178;21.176;2023-06-19T05:52:25;9.40;;;6.10;;
76896;SDS011;65856;52.178;21.176;2023-06-19T05:54:50;7.40;;;6.70;;
76896;SDS011;65856;52.178;21.176;2023-06-19T05:57:18;9.90;;;6.40;;
76896;SDS011;65856;52.178;21.176;2023-06-19T05:59:47;8.80;;;6.50;;
76896;SDS011;65856;52.178;21.176;2023-06-19T06:02:13;8.30;;;6.10;;
76896;SDS011;65856;52.178;21.176;2023-06-19T06:04:38;7.00;;;6.20;;
76896;SDS011;65856;52.178;21.176;2023-06-19T06:07:04;7.60;;;5.80;;
76896;SDS011;65856;52.178;21.176;2023-06-19T06:09:30;8.00;;;5.60;;
76896;SDS011;65856;52.178;21.176;2023-06-19T06:11:58;7.10;;;5.70;;
76896;SDS011;65856;52.178;21.176;2023-06-19T06:14:24;6.20;;;5.60;;
76896;SDS011;65856;52.178;21.176;2023-06-19T06:16:50;11.10;;;6.20;;
76896;SDS011;65856;52.178;21.176;2023-06-19T06:19:15;6.90;;;5.90;;
76896;SDS011;65856;52.178;21.176;2023-06-19T06:21:41;6.40;;;5.80;;
76896;SDS011;65856;52.178;21.176;2023-06-19T06:24:06;7.80;;;6.10;;
76896;SDS011;65856;52.178;21.176;2023-06-19T06:26:32;8.60;;;5.40;;
76896;SDS011;65856;52.178;21.176;2023-06-19T06:28:58;6.30;;;5.50;;
76896;SDS011;65856;52.178;21.176;2023-06-19T06:31:24;6.20;;;5.50;;
76896;SDS011;65856;52.178;21.176;2023-06-19T06:33:49;6.30;;;5.70;;
76896;SDS011;65856;52.178;21.176;2023-06-19T06:36:15;5.80;;;5.30;;
76896;SDS011;65856;52.178;21.176;2023-06-19T06:38:41;7.70;;;5.10;;
76896;SDS011;65856;52.178;21.176;2023-06-19T06:41:07;6.10;;;5.50;;
76896;SDS011;65856;52.178;21.176;2023-06-19T06:43:33;6.00;;;5.40;;
76896;SDS011;65856;52.178;21.176;2023-06-19T06:45:59;7.40;;;5.70;;
76896;SDS011;65856;52.178;21.176;2023-06-19T06:48:25;6.00;;;5.40;;
76896;SDS011;65856;52.178;21.176;2023-06-19T06:50:50;8.30;;;5.50;;
76896;SDS011;65856;52.178;21.176;2023-06-19T06:53:24;5.80;;;5.30;;
76896;SDS011;65856;52.178;21.176;2023-06-19T06:55:51;7.00;;;5.10;;
76896;SDS011;65856;52.178;21.176;2023-06-19T06:58:17;6.50;;;5.70;;
76896;SDS011;65856;52.178;21.176;2023-06-19T07:00:43;6.40;;;5.10;;
76896;SDS011;65856;52.178;21.176;2023-06-19T07:03:09;6.00;;;5.30;;
76896;SDS011;65856;52.178;21.176;2023-06-19T07:05:35;10.30;;;5.00;;
76896;SDS011;65856;52.178;21.176;2023-06-19T07:08:00;5.60;;;5.10;;
76896;SDS011;65856;52.178;21.176;2023-06-19T07:10:26;5.60;;;5.00;;
76896;SDS011;65856;52.178;21.176;2023-06-19T07:12:51;6.10;;;5.50;;
76896;SDS011;65856;52.178;21.176;2023-06-19T07:15:17;8.30;;;5.60;;
76896;SDS011;65856;52.178;21.176;2023-06-19T07:17:44;7.00;;;5.40;;
76896;SDS011;65856;52.178;21.176;2023-06-19T07:20:11;6.10;;;5.50;;
76896;SDS011;65856;52.178;21.176;2023-06-19T07:22:36;5.90;;;5.30;;
76896;SDS011;65856;52.178;21.176;2023-06-19T07:25:03;7.20;;;5.90;;
76896;SDS011;65856;52.178;21.176;2023-06-19T07:27:30;6.10;;;5.50;;
76896;SDS011;65856;52.178;21.176;2023-06-19T07:29:56;8.50;;;6.90;;
76896;SDS011;65856;52.178;21.176;2023-06-19T07:32:21;6.80;;;5.50;;
76896;SDS011;65856;52.178;21.176;2023-06-19T07:34:47;5.30;;;4.80;;
76896;SDS011;65856;52.178;21.176;2023-06-19T07:37:12;5.80;;;4.50;;
76896;SDS011;65856;52.178;21.176;2023-06-19T07:39:49;5.00;;;4.40;;
76896;SDS011;65856;52.178;21.176;2023-06-19T07:42:17;7.10;;;4.40;;
76896;SDS011;65856;52.178;21.176;2023-06-19T07:44:44;5.50;;;4.90;;
76896;SDS011;65856;52.178;21.176;2023-06-19T07:47:11;4.80;;;4.10;;
76896;SDS011;65856;52.178;21.176;2023-06-19T07:49:38;6.60;;;4.40;;
76896;SDS011;65856;52.178;21.176;2023-06-19T07:52:05;6.60;;;4.80;;
76896;SDS011;65856;52.178;21.176;2023-06-19T07:54:33;6.40;;;5.10;;
76896;SDS011;65856;52.178;21.176;2023-06-19T07:56:59;6.50;;;4.80;;
76896;SDS011;65856;52.178;21.176;2023-06-19T07:59:25;5.50;;;4.90;;
76896;SDS011;65856;52.178;21.176;2023-06-19T08:01:50;6.90;;;5.30;;
76896;SDS011;65856;52.178;21.176;2023-06-19T08:04:15;12.80;;;4.90;;
76896;SDS011;65856;52.178;21.176;2023-06-19T08:06:41;6.30;;;5.10;;
76896;SDS011;65856;52.178;21.176;2023-06-19T08:09:06;7.50;;;5.10;;
76896;SDS011;65856;52.178;21.176;2023-06-19T08:11:32;6.10;;;4.90;;
76896;SDS011;65856;52.178;21.176;2023-06-19T08:13:57;5.40;;;4.90;;
76896;SDS011;65856;52.178;21.176;2023-06-19T08:16:25;5.10;;;4.70;;
76896;SDS011;65856;52.178;21.176;2023-06-19T08:18:51;5.40;;;4.90;;
76896;SDS011;65856;52.178;21.176;2023-06-19T08:21:17;5.40;;;4.80;;
76896;SDS011;65856;52.178;21.176;2023-06-19T08:23:43;5.20;;;4.70;;
76896;SDS011;65856;52.178;21.176;2023-06-19T08:26:09;5.60;;;5.10;;
76896;SDS011;65856;52.178;21.176;2023-06-19T08:28:36;6.00;;;5.30;;
76896;SDS011;65856;52.178;21.176;2023-06-19T08:31:02;5.90;;;5.00;;
76896;SDS011;65856;52.178;21.176;2023-06-19T08:33:28;5.40;;;4.90;;
76896;SDS011;65856;52.178;21.176;2023-06-19T08:35:53;5.40;;;4.60;;
76896;SDS011;65856;52.178;21.176;2023-06-19T08:38:19;5.10;;;4.60;;
76896;SDS011;65856;52.178;21.176;2023-06-19T08:40:44;5.20;;;4.70;;
76896;SDS011;65856;52.178;21.176;2023-06-19T08:43:11;5.70;;;4.70;;
76896;SDS011;65856;52.178;21.176;2023-06-19T08:45:37;6.00;;;4.80;;
76896;SDS011;65856;52.178;21.176;2023-06-19T08:48:03;6.70;;;4.70;;
76896;SDS011;65856;52.178;21.176;2023-06-19T08:50:31;6.10;;;5.00;;
76896;SDS011;65856;52.178;21.176;2023-06-19T08:52:57;5.40;;;4.90;;
76896;SDS011;65856;52.178;21.176;2023-06-19T08:55:23;5.80;;;5.20;;
76896;SDS011;65856;52.178;21.176;2023-06-19T08:57:50;5.60;;;5.00;;
76896;SDS011;65856;52.178;21.176;2023-06-19T09:00:28;5.40;;;4.80;;
76896;SDS011;65856;52.178;21.176;2023-06-19T09:03:02;6.50;;;5.30;;
76896;SDS011;65856;52.178;21.176;2023-06-19T09:05:28;5.60;;;5.10;;
76896;SDS011;65856;52.178;21.176;2023-06-19T09:07:57;5.30;;;4.80;;
76896;SDS011;65856;52.178;21.176;2023-06-19T09:10:26;6.10;;;4.90;;
76896;SDS011;65856;52.178;21.176;2023-06-19T09:13:02;5.90;;;4.80;;
76896;SDS011;65856;52.178;21.176;2023-06-19T09:15:32;6.40;;;4.90;;
76896;SDS011;65856;52.178;21.176;2023-06-19T09:18:05;5.40;;;4.90;;
76896;SDS011;65856;52.178;21.176;2023-06-19T09:20:35;5.30;;;4.80;;
76896;SDS011;65856;52.178;21.176;2023-06-19T09:23:10;7.50;;;4.90;;
76896;SDS011;65856;52.178;21.176;2023-06-19T09:25:53;8.40;;;5.00;;
76896;SDS011;65856;52.178;21.176;2023-06-19T09:28:24;6.00;;;5.10;;
76896;SDS011;65856;52.178;21.176;2023-06-19T09:30:56;6.50;;;5.30;;
76896;SDS011;65856;52.178;21.176;2023-06-19T09:33:32;5.60;;;5.00;;
76896;SDS011;65856;52.178;21.176;2023-06-19T09:36:01;5.70;;;5.10;;
76896;SDS011;65856;52.178;21.176;2023-06-19T09:38:30;5.80;;;4.90;;
76896;SDS011;65856;52.178;21.176;2023-06-19T09:41:04;6.20;;;4.80;;
76896;SDS011;65856;52.178;21.176;2023-06-19T09:43:42;6.20;;;4.80;;
76896;SDS011;65856;52.178;21.176;2023-06-19T09:46:10;5.50;;;5.00;;
76896;SDS011;65856;52.178;21.176;2023-06-19T09:48:42;8.80;;;5.40;;
76896;SDS011;65856;52.178;21.176;2023-06-19T09:51:23;7.60;;;4.90;;
76896;SDS011;65856;52.178;21.176;2023-06-19T09:53:57;8.80;;;5.70;;
76896;SDS011;65856;52.178;21.176;2023-06-19T09:56:24;5.70;;;5.20;;
76896;SDS011;65856;52.178;21.176;2023-06-19T09:58:53;7.00;;;5.20;;
76896;SDS011;65856;52.178;21.176;2023-06-19T10:01:26;6.50;;;5.40;;
76896;SDS011;65856;52.178;21.176;2023-06-19T10:04:05;8.50;;;5.40;;
76896;SDS011;65856;52.178;21.176;2023-06-19T10:06:42;6.80;;;5.90;;
76896;SDS011;65856;52.178;21.176;2023-06-19T10:09:14;7.80;;;5.30;;
76896;SDS011;65856;52.178;21.176;2023-06-19T10:11:52;6.60;;;5.30;;
76896;SDS011;65856;52.178;21.176;2023-06-19T10:14:22;5.40;;;4.90;;
76896;SDS011;65856;52.178;21.176;2023-06-19T10:16:49;5.50;;;5.00;;
76896;SDS011;65856;52.178;21.176;2023-06-19T10:19:16;5.80;;;5.20;;
76896;SDS011;65856;52.178;21.176;2023-06-19T10:21:48;6.30;;;4.90;;
76896;SDS011;65856;52.178;21.176;2023-06-19T10:24:17;5.80;;;5.10;;
76896;SDS011;65856;52.178;21.176;2023-06-19T10:26:59;5.40;;;4.90;;
76896;SDS011;65856;52.178;21.176;2023-06-19T10:29:26;6.00;;;4.60;;
76896;SDS011;65856;52.178;21.176;2023-06-19T10:31:52;5.00;;;4.40;;
76896;SDS011;65856;52.178;21.176;2023-06-19T10:34:18;5.00;;;4.50;;
76896;SDS011;65856;52.178;21.176;2023-06-19T10:36:44;6.90;;;4.60;;
76896;SDS011;65856;52.178;21.176;2023-06-19T10:39:09;5.10;;;4.60;;
76896;SDS011;65856;52.178;21.176;2023-06-19T10:41:35;6.30;;;4.80;;
76896;SDS011;65856;52.178;21.176;2023-06-19T10:44:06;5.20;;;4.70;;
76896;SDS011;65856;52.178;21.176;2023-06-19T10:46:38;7.80;;;4.60;;
76896;SDS011;65856;52.178;21.176;2023-06-19T10:49:06;5.80;;;4.70;;
76896;SDS011;65856;52.178;21.176;2023-06-19T10:51:36;6.40;;;4.70;;
76896;SDS011;65856;52.178;21.176;2023-06-19T10:54:04;5.20;;;4.70;;
76896;SDS011;65856;52.178;21.176;2023-06-19T10:56:30;5.40;;;4.80;;
76896;SDS011;65856;52.178;21.176;2023-06-19T11:01:41;6.60;;;4.60;;
76896;SDS011;65856;52.178;21.176;2023-06-19T11:04:12;5.50;;;4.40;;
76896;SDS011;65856;52.178;21.176;2023-06-19T11:06:41;5.30;;;4.60;;
76896;SDS011;65856;52.178;21.176;2023-06-19T11:09:10;5.10;;;4.40;;
76896;SDS011;65856;52.178;21.176;2023-06-19T11:11:46;6.00;;;4.60;;
76896;SDS011;65856;52.178;21.176;2023-06-19T11:14:14;5.20;;;4.40;;
76896;SDS011;65856;52.178;21.176;2023-06-19T11:16:44;5.10;;;4.60;;
76896;SDS011;65856;52.178;21.176;2023-06-19T11:19:17;7.00;;;4.50;;
76896;SDS011;65856;52.178;21.176;2023-06-19T11:21:51;5.40;;;4.90;;
76896;SDS011;65856;52.178;21.176;2023-06-19T11:24:19;4.90;;;4.40;;
76896;SDS011;65856;52.178;21.176;2023-06-19T11:26:48;5.40;;;4.80;;
76896;SDS011;65856;52.178;21.176;2023-06-19T11:29:23;5.20;;;4.30;;
76896;SDS011;65856;52.178;21.176;2023-06-19T11:32:29;5.90;;;4.70;;
76896;SDS011;65856;52.178;21.176;2023-06-19T11:37:40;5.30;;;4.80;;
76896;SDS011;65856;52.178;21.176;2023-06-19T11:40:07;5.40;;;4.70;;
76896;SDS011;65856;52.178;21.176;2023-06-19T11:42:53;6.60;;;4.80;;
76896;SDS011;65856;52.178;21.176;2023-06-19T11:45:21;6.10;;;4.50;;
76896;SDS011;65856;52.178;21.176;2023-06-19T11:47:49;6.00;;;4.90;;
76896;SDS011;65856;52.178;21.176;2023-06-19T11:50:15;7.00;;;4.70;;
76896;SDS011;65856;52.178;21.176;2023-06-19T11:52:43;5.80;;;4.70;;
76896;SDS011;65856;52.178;21.176;2023-06-19T11:55:13;6.60;;;4.30;;
76896;SDS011;65856;52.178;21.176;2023-06-19T11:57:41;5.80;;;4.40;;
76896;SDS011;65856;52.178;21.176;2023-06-19T12:00:13;5.30;;;4.10;;
76896;SDS011;65856;52.178;21.176;2023-06-19T12:02:41;5.50;;;4.30;;
76896;SDS011;65856;52.178;21.176;2023-06-19T12:05:06;5.80;;;4.30;;
76896;SDS011;65856;52.178;21.176;2023-06-19T12:07:33;4.60;;;3.90;;
76896;SDS011;65856;52.178;21.176;2023-06-19T12:09:58;5.20;;;4.40;;
76896;SDS011;65856;52.178;21.176;2023-06-19T12:12:23;4.70;;;4.10;;
76896;SDS011;65856;52.178;21.176;2023-06-19T12:14:51;5.10;;;4.30;;
76896;SDS011;65856;52.178;21.176;2023-06-19T12:17:16;6.10;;;4.70;;
76896;SDS011;65856;52.178;21.176;2023-06-19T12:19:42;5.50;;;4.10;;
76896;SDS011;65856;52.178;21.176;2023-06-19T12:22:07;5.00;;;4.50;;
76896;SDS011;65856;52.178;21.176;2023-06-19T12:24:32;4.60;;;4.20;;
76896;SDS011;65856;52.178;21.176;2023-06-19T12:26:58;5.40;;;4.10;;
76896;SDS011;65856;52.178;21.176;2023-06-19T12:29:24;4.60;;;3.70;;
76896;SDS011;65856;52.178;21.176;2023-06-19T12:31:49;7.20;;;3.90;;
76896;SDS011;65856;52.178;21.176;2023-06-19T12:34:15;4.40;;;3.60;;
76896;SDS011;65856;52.178;21.176;2023-06-19T12:36:42;5.10;;;3.70;;
76896;SDS011;65856;52.178;21.176;2023-06-19T12:39:08;4.80;;;4.10;;
76896;SDS011;65856;52.178;21.176;2023-06-19T12:41:41;6.60;;;3.80;;
76896;SDS011;65856;52.178;21.176;2023-06-19T12:44:06;4.20;;;3.70;;
76896;SDS011;65856;52.178;21.176;2023-06-19T12:46:32;4.20;;;3.80;;
76896;SDS011;65856;52.178;21.176;2023-06-19T12:48:57;4.70;;;4.10;;
76896;SDS011;65856;52.178;21.176;2023-06-19T12:51:23;6.60;;;4.20;;
76896;SDS011;65856;52.178;21.176;2023-06-19T12:53:48;5.40;;;3.90;;
76896;SDS011;65856;52.178;21.176;2023-06-19T12:56:14;4.80;;;4.40;;
76896;SDS011;65856;52.178;21.176;2023-06-19T12:58:39;4.40;;;4.00;;
76896;SDS011;65856;52.178;21.176;2023-06-19T13:01:04;4.60;;;4.10;;
76896;SDS011;65856;52.178;21.176;2023-06-19T13:03:31;5.50;;;4.00;;
76896;SDS011;65856;52.178;21.176;2023-06-19T13:05:56;4.70;;;4.30;;
76896;SDS011;65856;52.178;21.176;2023-06-19T13:08:22;4.50;;;4.00;;
76896;SDS011;65856;52.178;21.176;2023-06-19T13:10:47;4.80;;;4.40;;
76896;SDS011;65856;52.178;21.176;2023-06-19T13:13:13;4.70;;;4.20;;
76896;SDS011;65856;52.178;21.176;2023-06-19T13:15:39;4.80;;;4.00;;
76896;SDS011;65856;52.178;21.176;2023-06-19T13:18:04;4.70;;;4.20;;
76896;SDS011;65856;52.178;21.176;2023-06-19T13:20:30;5.80;;;4.30;;
76896;SDS011;65856;52.178;21.176;2023-06-19T13:22:55;4.50;;;4.00;;
76896;SDS011;65856;52.178;21.176;2023-06-19T13:25:20;4.80;;;3.90;;
76896;SDS011;65856;52.178;21.176;2023-06-19T13:27:46;6.20;;;4.20;;
76896;SDS011;65856;52.178;21.176;2023-06-19T13:30:12;4.50;;;4.00;;
76896;SDS011;65856;52.178;21.176;2023-06-19T13:32:39;5.10;;;4.40;;
76896;SDS011;65856;52.178;21.176;2023-06-19T13:35:07;5.90;;;4.30;;
76896;SDS011;65856;52.178;21.176;2023-06-19T13:37:35;6.00;;;4.00;;
76896;SDS011;65856;52.178;21.176;2023-06-19T13:40:04;5.30;;;4.20;;
76896;SDS011;65856;52.178;21.176;2023-06-19T13:42:31;5.40;;;4.00;;
76896;SDS011;65856;52.178;21.176;2023-06-19T13:44:57;5.10;;;4.30;;
76896;SDS011;65856;52.178;21.176;2023-06-19T13:47:22;5.90;;;4.30;;
76896;SDS011;65856;52.178;21.176;2023-06-19T13:49:51;5.40;;;4.40;;
76896;SDS011;65856;52.178;21.176;2023-06-19T13:52:17;6.30;;;4.00;;
76896;SDS011;65856;52.178;21.176;2023-06-19T13:54:42;7.00;;;4.00;;
76896;SDS011;65856;52.178;21.176;2023-06-19T13:57:08;5.90;;;4.00;;
76896;SDS011;65856;52.178;21.176;2023-06-19T13:59:33;7.20;;;4.30;;
76896;SDS011;65856;52.178;21.176;2023-06-19T14:01:59;5.60;;;4.00;;
76896;SDS011;65856;52.178;21.176;2023-06-19T14:04:24;6.00;;;3.80;;
76896;SDS011;65856;52.178;21.176;2023-06-19T14:06:50;6.50;;;4.20;;
76896;SDS011;65856;52.178;21.176;2023-06-19T14:09:15;8.20;;;4.40;;
76896;SDS011;65856;52.178;21.176;2023-06-19T14:11:40;4.80;;;4.30;;
76896;SDS011;65856;52.178;21.176;2023-06-19T14:14:06;4.70;;;4.20;;
76896;SDS011;65856;52.178;21.176;2023-06-19T14:16:32;5.60;;;4.00;;
76896;SDS011;65856;52.178;21.176;2023-06-19T14:18:58;4.80;;;4.20;;
76896;SDS011;65856;52.178;21.176;2023-06-19T14:21:23;8.30;;;4.30;;
76896;SDS011;65856;52.178;21.176;2023-06-19T14:23:49;4.90;;;4.20;;
76896;SDS011;65856;52.178;21.176;2023-06-19T14:26:14;4.80;;;4.30;;
76896;SDS011;65856;52.178;21.176;2023-06-19T14:28:40;5.00;;;4.40;;
76896;SDS011;65856;52.178;21.176;2023-06-19T14:31:06;6.90;;;4.50;;
76896;SDS011;65856;52.178;21.176;2023-06-19T14:33:32;4.60;;;4.20;;
76896;SDS011;65856;52.178;21.176;2023-06-19T14:36:02;4.70;;;4.30;;
76896;SDS011;65856;52.178;21.176;2023-06-19T14:38:28;6.80;;;4.30;;